createdAt,value
2024-04-15T04:23:53.118Z,99.90
2024-04-15T04:26:20.205Z,99.90
2024-04-15T04:28:50.024Z,99.90
2024-04-15T04:31:18.272Z,99.90
2024-04-15T04:33:47.876Z,99.90
2024-04-15T04:36:17.957Z,99.90
2024-04-15T04:38:48.235Z,99.90
2024-04-15T04:41:17.866Z,99.90
2024-04-15T04:43:47.793Z,99.90
2024-04-15T04:46:15.081Z,99.90
2024-04-15T04:48:45.109Z,99.90
2024-04-15T04:51:12.516Z,99.90
2024-04-15T04:53:42.211Z,99.90
2024-04-15T04:56:10.592Z,99.90
2024-04-15T04:58:43.513Z,99.90
2024-04-15T05:01:11.484Z,99.90
2024-04-15T05:03:42.419Z,99.90
2024-04-15T05:06:10.725Z,99.90
2024-04-15T05:08:42.117Z,99.90
2024-04-15T05:11:09.216Z,99.90
2024-04-15T05:13:39.076Z,99.90
2024-04-15T05:16:10.792Z,99.90
2024-04-15T13:50:28.008Z,6.80
2024-04-15T13:52:55.871Z,7.30
2024-04-15T13:55:25.664Z,3.30
2024-04-15T13:57:52.729Z,1.00
2024-04-15T14:00:22.811Z,1.00
2024-04-15T14:02:50.720Z,1.00
2024-04-15T14:05:21.914Z,1.00
2024-04-15T14:07:52.504Z,1.00
2024-04-15T14:10:22.215Z,1.00
2024-04-15T14:12:49.484Z,1.00
2024-04-15T14:15:23.921Z,1.00
2024-04-15T14:17:52.344Z,1.00
2024-04-15T14:20:25.252Z,1.00
2024-04-15T14:22:55.357Z,1.00
2024-04-15T14:25:25.154Z,1.00
2024-04-15T14:27:53.586Z,1.00
2024-04-15T14:30:32.470Z,1.00
2024-04-15T14:33:00.313Z,1.00
2024-04-15T14:35:31.183Z,1.00
2024-04-15T14:38:01.198Z,1.00
2024-04-15T14:40:32.056Z,1.00
2024-04-15T14:42:59.172Z,1.00
2024-04-15T14:45:28.965Z,1.00
2024-04-15T14:47:56.370Z,1.00
2024-04-15T14:50:27.547Z,1.00
2024-04-15T14:52:54.645Z,1.00
2024-04-15T14:55:29.626Z,1.00
2024-04-15T14:57:58.504Z,1.00
2024-04-15T15:00:28.342Z,1.00
2024-04-15T15:02:55.333Z,1.00
2024-04-15T15:05:25.425Z,1.00
2024-04-15T15:07:53.968Z,1.00
2024-04-15T15:10:27.351Z,1.00
2024-04-15T15:12:57.736Z,1.00
2024-04-15T15:15:27.359Z,1.00
2024-04-15T15:17:55.387Z,1.00
2024-04-15T15:20:25.139Z,1.00
2024-04-15T15:22:54.411Z,1.00
2024-04-15T15:25:26.880Z,1.00
2024-04-15T15:27:54.240Z,1.00
2024-04-15T15:30:24.243Z,1.00
2024-04-15T15:32:51.272Z,1.00
2024-04-15T15:35:21.389Z,1.00
2024-04-15T15:37:48.922Z,1.00
2024-04-15T15:40:18.905Z,1.00
2024-04-15T15:42:48.571Z,1.00
2024-04-15T15:45:18.307Z,1.00
2024-04-15T15:47:45.349Z,1.00
2024-04-15T15:50:14.977Z,1.00
2024-04-15T15:52:41.903Z,1.00
2024-04-15T15:55:11.880Z,1.00
2024-04-15T15:57:39.365Z,1.00
2024-04-15T17:21:41.956Z,11.90
2024-04-15T17:24:11.916Z,13.90
2024-04-15T17:26:43.190Z,13.90
2024-04-15T17:29:13.233Z,14.70
2024-04-15T17:31:42.775Z,6.60
2024-04-15T17:34:09.729Z,2.40
2024-04-15T17:36:45.857Z,2.60
2024-04-15T17:39:13.191Z,1.00
2024-04-15T17:41:45.251Z,1.00
2024-04-15T17:44:14.582Z,1.00
2024-04-15T17:46:47.467Z,1.00
2024-04-15T17:49:15.175Z,1.00
2024-04-15T17:51:47.898Z,2.20
2024-04-15T17:54:15.028Z,1.80
2024-04-15T17:56:45.359Z,5.20
2024-04-15T17:59:12.727Z,9.20
2024-04-15T18:01:44.028Z,14.80
2024-04-15T18:04:15.485Z,16.90
2024-04-15T18:06:48.234Z,17.80
2024-04-15T18:09:16.410Z,16.30
2024-04-15T18:11:46.251Z,17.80
2024-04-15T18:14:16.376Z,19.00
2024-04-15T18:16:47.152Z,18.40
2024-04-15T18:19:16.845Z,18.20
2024-04-15T18:21:49.756Z,17.60
2024-04-15T18:24:18.035Z,16.50
2024-04-15T18:26:47.802Z,17.20
2024-04-15T18:29:14.830Z,17.90
2024-04-15T18:31:47.426Z,19.10
2024-04-15T18:34:17.113Z,19.20
2024-04-15T18:36:52.051Z,18.30
2024-04-15T18:39:19.054Z,18.40
